SKW3432 KSTS-KSNA
Flight info
| Callsign | SKW3432 |
|---|---|
| Flight time | N/A |
| Altitude | 35000 |
| Route | RREHD1 HADLY FFOIL LIBBO TILLT RUKKI1 |
| Aircraft | E75L/M-SDE3GILORVW/S |
Departure
| Time | N/A |
|---|---|
| Airport | Charles M. Schulz Sonoma County Airport (KSTS) |
Arrival
| Time | 2026-05-04 02:19 |
|---|---|
| Airport | John Wayne Orange County International Airport (KSNA) |
| Time | Latitude | Longitude | Altitude | Speed | Heading |
|---|---|---|---|---|---|
| 2026-05-04 01:08 | 37.88011 | -122.88889 | 28691 ft | 386 kts | 145° |
| 2026-05-04 01:09 | 37.85618 | -122.87312 | 29222 ft | 389 kts | 145° |
| 2026-05-04 01:09 | 37.83241 | -122.85746 | 29717 ft | 392 kts | 145° |
| 2026-05-04 01:09 | 37.80807 | -122.84146 | 30162 ft | 396 kts | 145° |
| 2026-05-04 01:09 | 37.78343 | -122.82526 | 30492 ft | 400 kts | 146° |
| 2026-05-04 01:10 | 37.75852 | -122.80889 | 30813 ft | 405 kts | 147° |
| 2026-05-04 01:10 | 37.73342 | -122.79241 | 31148 ft | 409 kts | 148° |
| 2026-05-04 01:10 | 37.70800 | -122.77573 | 31470 ft | 413 kts | 148° |
| 2026-05-04 01:10 | 37.68236 | -122.75891 | 31782 ft | 417 kts | 149° |
| 2026-05-04 01:11 | 37.65644 | -122.74192 | 32074 ft | 422 kts | 150° |
| 2026-05-04 01:11 | 37.63027 | -122.72477 | 32389 ft | 425 kts | 150° |
| 2026-05-04 01:11 | 37.60399 | -122.70756 | 32776 ft | 426 kts | 152° |
| 2026-05-04 01:11 | 37.57796 | -122.69052 | 33158 ft | 427 kts | 152° |
| 2026-05-04 01:12 | 37.55153 | -122.67323 | 33556 ft | 428 kts | 153° |
| 2026-05-04 01:12 | 37.52505 | -122.65590 | 33932 ft | 429 kts | 154° |
| 2026-05-04 01:12 | 37.49848 | -122.63852 | 34239 ft | 431 kts | 154° |
| 2026-05-04 01:12 | 37.47187 | -122.62112 | 34554 ft | 431 kts | 155° |
| 2026-05-04 01:13 | 37.44526 | -122.60372 | 34871 ft | 432 kts | 155° |
| 2026-05-04 01:13 | 37.41850 | -122.58660 | 35103 ft | 433 kts | 159° |
| 2026-05-04 01:13 | 37.38956 | -122.57586 | 35063 ft | 436 kts | 175° |
| 2026-05-04 01:14 | 37.32828 | -122.57288 | 35145 ft | 447 kts | 181° |
| 2026-05-04 01:14 | 37.26510 | -122.57105 | 35144 ft | 462 kts | 181° |
| 2026-05-04 01:14 | 37.23250 | -122.57016 | 35012 ft | 472 kts | 181° |
| 2026-05-04 01:15 | 37.19970 | -122.56924 | 34586 ft | 484 kts | 181° |
| 2026-05-04 01:15 | 37.13250 | -122.56730 | 34561 ft | 482 kts | 182° |
| 2026-05-04 01:16 | 37.06550 | -122.56529 | 34583 ft | 481 kts | 182° |
| 2026-05-04 01:16 | 36.99886 | -122.55615 | 34544 ft | 492 kts | 163° |
| 2026-05-04 01:17 | 36.93834 | -122.51429 | 34592 ft | 499 kts | 154° |
| 2026-05-04 01:17 | 36.87848 | -122.47010 | 34620 ft | 499 kts | 154° |
| 2026-05-04 01:18 | 36.81895 | -122.42639 | 34625 ft | 500 kts | 155° |
| 2026-05-04 01:18 | 36.75891 | -122.38247 | 34619 ft | 500 kts | 155° |
| 2026-05-04 01:19 | 36.69881 | -122.33863 | 34619 ft | 501 kts | 156° |
| 2026-05-04 01:19 | 36.63859 | -122.29481 | 34616 ft | 501 kts | 157° |
| 2026-05-04 01:20 | 36.57836 | -122.25107 | 34608 ft | 502 kts | 157° |
| 2026-05-04 01:20 | 36.51795 | -122.20729 | 34604 ft | 502 kts | 158° |
| 2026-05-04 01:21 | 36.45764 | -122.16365 | 34598 ft | 502 kts | 158° |
| 2026-05-04 01:21 | 36.39741 | -122.12010 | 34376 ft | 496 kts | 159° |
| 2026-05-04 01:22 | 36.33755 | -122.07690 | 34269 ft | 491 kts | 160° |
| 2026-05-04 01:22 | 36.28148 | -122.03306 | 34788 ft | 460 kts | 157° |
| 2026-05-04 01:22 | 36.25456 | -122.01283 | 34541 ft | 450 kts | 163° |
| 2026-05-04 01:23 | 36.22699 | -121.99448 | 34375 ft | 448 kts | 163° |
| 2026-05-04 01:23 | 36.17307 | -121.95715 | 34266 ft | 439 kts | 163° |
| 2026-05-04 01:24 | 36.12048 | -121.92023 | 34210 ft | 430 kts | 163° |
| 2026-05-04 01:24 | 36.06946 | -121.88411 | 34366 ft | 416 kts | 163° |
| 2026-05-04 01:25 | 36.01980 | -121.84887 | 34402 ft | 408 kts | 164° |
| 2026-05-04 01:25 | 35.99630 | -121.82809 | 34354 ft | 428 kts | 149° |
| 2026-05-04 01:25 | 35.97635 | -121.80068 | 34349 ft | 439 kts | 142° |
| 2026-05-04 01:26 | 35.93860 | -121.74171 | 34354 ft | 435 kts | 142° |
| 2026-05-04 01:26 | 35.90110 | -121.68364 | 34351 ft | 431 kts | 142° |
| 2026-05-04 01:27 | 35.86376 | -121.62616 | 34323 ft | 428 kts | 143° |
| 2026-05-04 01:27 | 35.82662 | -121.56914 | 34305 ft | 425 kts | 143° |
| 2026-05-04 01:28 | 35.78966 | -121.51252 | 34285 ft | 423 kts | 143° |
| 2026-05-04 01:28 | 35.75284 | -121.45622 | 34268 ft | 421 kts | 143° |
| 2026-05-04 01:29 | 35.71615 | -121.40021 | 34245 ft | 419 kts | 143° |
| 2026-05-04 01:29 | 35.67956 | -121.34444 | 34228 ft | 418 kts | 143° |
| 2026-05-04 01:30 | 35.64333 | -121.28932 | 34210 ft | 417 kts | 143° |
| 2026-05-04 01:30 | 35.60704 | -121.23419 | 34251 ft | 414 kts | 143° |
| 2026-05-04 01:30 | 35.58855 | -121.20630 | 33753 ft | 428 kts | 143° |
| 2026-05-04 01:31 | 35.56944 | -121.17755 | 33378 ft | 436 kts | 143° |
| 2026-05-04 01:31 | 35.55072 | -121.14895 | 33896 ft | 417 kts | 143° |
| 2026-05-04 01:31 | 35.53388 | -121.12274 | 35304 ft | 363 kts | 144° |
| 2026-05-04 01:31 | 35.51859 | -121.09922 | 35911 ft | 355 kts | 145° |
| 2026-05-04 01:32 | 35.50204 | -121.07501 | 35212 ft | 388 kts | 144° |
| 2026-05-04 01:32 | 35.46753 | -121.02289 | 35893 ft | 385 kts | 143° |
| 2026-05-04 01:33 | 35.43004 | -120.97600 | 35888 ft | 386 kts | 154° |
| 2026-05-04 01:33 | 35.38870 | -120.93159 | 35980 ft | 403 kts | 153° |
| 2026-05-04 01:33 | 35.36722 | -120.90851 | 35626 ft | 423 kts | 152° |
| 2026-05-04 01:34 | 35.34459 | -120.88409 | 35575 ft | 434 kts | 152° |
| 2026-05-04 01:34 | 35.32275 | -120.86024 | 36415 ft | 417 kts | 152° |
| 2026-05-04 01:34 | 35.30093 | -120.83663 | 36534 ft | 424 kts | 152° |
| 2026-05-04 01:34 | 35.27768 | -120.81186 | 35553 ft | 461 kts | 151° |
| 2026-05-04 01:35 | 35.25375 | -120.78582 | 35924 ft | 459 kts | 150° |
| 2026-05-04 01:35 | 35.20502 | -120.73329 | 35920 ft | 476 kts | 150° |
| 2026-05-04 01:35 | 35.17981 | -120.70620 | 35699 ft | 489 kts | 150° |
| 2026-05-04 01:36 | 35.15407 | -120.67848 | 35824 ft | 494 kts | 150° |
| 2026-05-04 01:36 | 35.12807 | -120.65035 | 35456 ft | 509 kts | 149° |
| 2026-05-04 01:36 | 35.11028 | -120.63112 | 35073 ft | 517 kts | 150° |
| 2026-05-04 01:36 | 35.08349 | -120.60231 | 34994 ft | 506 kts | 150° |
| 2026-05-04 01:37 | 35.05811 | -120.57480 | 36165 ft | 458 kts | 150° |
| 2026-05-04 01:37 | 35.02827 | -120.54687 | 39300 ft | 367 kts | 159° |
| 2026-05-04 01:37 | 35.00731 | -120.52956 | 39324 ft | 376 kts | 160° |
| 2026-05-04 01:37 | 34.98436 | -120.51149 | 38706 ft | 403 kts | 159° |
| 2026-05-04 01:38 | 34.96872 | -120.49886 | 39058 ft | 392 kts | 159° |
| 2026-05-04 01:38 | 34.94629 | -120.48082 | 39315 ft | 391 kts | 159° |
| 2026-05-04 01:38 | 34.92238 | -120.46196 | 37828 ft | 440 kts | 159° |
| 2026-05-04 01:38 | 34.89706 | -120.44108 | 38519 ft | 412 kts | 158° |
| 2026-05-04 01:39 | 34.87607 | -120.42333 | 41194 ft | 330 kts | 159° |
| 2026-05-04 01:39 | 34.85808 | -120.40850 | 42485 ft | 303 kts | 159° |
| 2026-05-04 01:39 | 34.83979 | -120.39415 | 41625 ft | 331 kts | 160° |
| 2026-05-04 01:39 | 34.81869 | -120.37773 | 40121 ft | 386 kts | 159° |
| 2026-05-04 01:40 | 34.79598 | -120.35937 | 40102 ft | 389 kts | 158° |
| 2026-05-04 01:40 | 34.77377 | -120.34137 | 40605 ft | 379 kts | 159° |
| 2026-05-04 01:40 | 34.75173 | -120.32364 | 40583 ft | 386 kts | 159° |
| 2026-05-04 01:40 | 34.72843 | -120.30514 | 39652 ft | 417 kts | 159° |
| 2026-05-04 01:41 | 34.70292 | -120.28496 | 37931 ft | 458 kts | 159° |
| 2026-05-04 01:41 | 34.67497 | -120.26272 | 35908 ft | 501 kts | 159° |
| 2026-05-04 01:41 | 34.64601 | -120.23924 | 35794 ft | 493 kts | 159° |
| 2026-05-04 01:41 | 34.61784 | -120.21645 | 35808 ft | 482 kts | 160° |
| 2026-05-04 01:42 | 34.58954 | -120.19385 | 34601 ft | 498 kts | 161° |
| 2026-05-04 01:42 | 34.56084 | -120.17076 | 34872 ft | 476 kts | 161° |
| 2026-05-04 01:42 | 34.53508 | -120.14946 | 35965 ft | 426 kts | 161° |
| 2026-05-04 01:42 | 34.51080 | -120.12880 | 32777 ft | 451 kts | 162° |
| 2026-05-04 01:43 | 34.48339 | -120.10685 | 31051 ft | 467 kts | 160° |
| 2026-05-04 01:43 | 34.45834 | -120.08682 | 31984 ft | 402 kts | 162° |
| 2026-05-04 01:43 | 34.43632 | -120.06937 | 32450 ft | 358 kts | 166° |
| 2026-05-04 01:43 | 34.41551 | -120.05343 | 32638 ft | 352 kts | 167° |
| 2026-05-04 01:44 | 34.39464 | -120.03748 | 32562 ft | 357 kts | 167° |
| 2026-05-04 01:44 | 34.35241 | -120.00462 | 32514 ft | 363 kts | 166° |
| 2026-05-04 01:45 | 34.30980 | -119.97117 | 32524 ft | 367 kts | 166° |
| 2026-05-04 01:45 | 34.24531 | -119.92029 | 32542 ft | 371 kts | 166° |
| 2026-05-04 01:46 | 34.20272 | -119.88654 | 31644 ft | 362 kts | 165° |
| 2026-05-04 01:46 | 34.18188 | -119.87013 | 30808 ft | 363 kts | 163° |
| 2026-05-04 01:46 | 34.16074 | -119.85348 | 29942 ft | 363 kts | 161° |
| 2026-05-04 01:47 | 34.13956 | -119.83677 | 28932 ft | 364 kts | 161° |
| 2026-05-04 01:47 | 34.11832 | -119.82004 | 27902 ft | 365 kts | 161° |
| 2026-05-04 01:47 | 34.09724 | -119.80334 | 27369 ft | 352 kts | 161° |
| 2026-05-04 01:47 | 34.07808 | -119.78537 | 27678 ft | 352 kts | 150° |
| 2026-05-04 01:48 | 34.06165 | -119.76193 | 27512 ft | 384 kts | 135° |
| 2026-05-04 01:48 | 34.04739 | -119.73334 | 27174 ft | 407 kts | 130° |
| 2026-05-04 01:48 | 34.03298 | -119.70343 | 26978 ft | 417 kts | 131° |
| 2026-05-04 01:48 | 34.01803 | -119.67296 | 26790 ft | 427 kts | 131° |
| 2026-05-04 01:49 | 34.00264 | -119.64185 | 26544 ft | 438 kts | 130° |
| 2026-05-04 01:49 | 33.98682 | -119.61000 | 26278 ft | 446 kts | 130° |
| 2026-05-04 01:49 | 33.97072 | -119.57770 | 26023 ft | 450 kts | 130° |
| 2026-05-04 01:49 | 33.95453 | -119.54535 | 25773 ft | 454 kts | 130° |
| 2026-05-04 01:50 | 33.93835 | -119.51313 | 25560 ft | 456 kts | 130° |
| 2026-05-04 01:50 | 33.92198 | -119.48055 | 25310 ft | 454 kts | 130° |
| 2026-05-04 01:50 | 33.90574 | -119.44827 | 25289 ft | 446 kts | 130° |
| 2026-05-04 01:50 | 33.88946 | -119.41598 | 24785 ft | 458 kts | 129° |
| 2026-05-04 01:51 | 33.87340 | -119.38287 | 24173 ft | 455 kts | 129° |
| 2026-05-04 01:51 | 33.85752 | -119.35024 | 23531 ft | 450 kts | 129° |
| 2026-05-04 01:51 | 33.84182 | -119.31803 | 22898 ft | 442 kts | 129° |
| 2026-05-04 01:51 | 33.82639 | -119.28643 | 22289 ft | 435 kts | 128° |
| 2026-05-04 01:52 | 33.81116 | -119.25531 | 21715 ft | 427 kts | 128° |
| 2026-05-04 01:52 | 33.79622 | -119.22483 | 21156 ft | 420 kts | 128° |
| 2026-05-04 01:52 | 33.78147 | -119.19477 | 20600 ft | 414 kts | 128° |
| 2026-05-04 01:52 | 33.76694 | -119.16521 | 20050 ft | 408 kts | 128° |
| 2026-05-04 01:53 | 33.75255 | -119.13594 | 19516 ft | 403 kts | 127° |
| 2026-05-04 01:53 | 33.73836 | -119.10713 | 18971 ft | 398 kts | 127° |
| 2026-05-04 01:53 | 33.72432 | -119.07864 | 18457 ft | 394 kts | 127° |
| 2026-05-04 01:53 | 33.71041 | -119.05044 | 17900 ft | 389 kts | 127° |
| 2026-05-04 01:54 | 33.69687 | -119.02317 | 17380 ft | 382 kts | 127° |
| 2026-05-04 01:54 | 33.68330 | -118.99621 | 16955 ft | 373 kts | 127° |
| 2026-05-04 01:54 | 33.66995 | -118.96967 | 16443 ft | 368 kts | 127° |
| 2026-05-04 01:54 | 33.65682 | -118.94358 | 15982 ft | 363 kts | 126° |
| 2026-05-04 01:55 | 33.64383 | -118.91779 | 15505 ft | 359 kts | 126° |
| 2026-05-04 01:55 | 33.63100 | -118.89232 | 15035 ft | 355 kts | 126° |
| 2026-05-04 01:55 | 33.61823 | -118.86699 | 14566 ft | 351 kts | 126° |
| 2026-05-04 01:55 | 33.60564 | -118.84202 | 14104 ft | 346 kts | 125° |
| 2026-05-04 01:56 | 33.59341 | -118.81777 | 13636 ft | 342 kts | 125° |
| 2026-05-04 01:56 | 33.58121 | -118.79361 | 13214 ft | 336 kts | 125° |
| 2026-05-04 01:56 | 33.57047 | -118.76888 | 12834 ft | 336 kts | 112° |
| 2026-05-04 01:56 | 33.56543 | -118.74178 | 12489 ft | 330 kts | 102° |
| 2026-05-04 01:57 | 33.56150 | -118.71495 | 12136 ft | 323 kts | 103° |
| 2026-05-04 01:57 | 33.55747 | -118.68874 | 11812 ft | 317 kts | 103° |
| 2026-05-04 01:57 | 33.55345 | -118.66303 | 11489 ft | 311 kts | 104° |
| 2026-05-04 01:57 | 33.54944 | -118.63766 | 11169 ft | 308 kts | 104° |
| 2026-05-04 01:58 | 33.54541 | -118.61248 | 10856 ft | 306 kts | 104° |
| 2026-05-04 01:58 | 33.54141 | -118.58749 | 10544 ft | 305 kts | 104° |
| 2026-05-04 01:58 | 33.53740 | -118.56259 | 10228 ft | 304 kts | 104° |
| 2026-05-04 01:58 | 33.53338 | -118.53777 | 9921 ft | 303 kts | 104° |
| 2026-05-04 01:59 | 33.52936 | -118.51300 | 9599 ft | 302 kts | 103° |
| 2026-05-04 01:59 | 33.52537 | -118.48840 | 9297 ft | 300 kts | 103° |
| 2026-05-04 01:59 | 33.52136 | -118.46382 | 8934 ft | 301 kts | 103° |
| 2026-05-04 01:59 | 33.51909 | -118.43896 | 8605 ft | 300 kts | 92° |
| 2026-05-04 02:00 | 33.51912 | -118.41396 | 8216 ft | 301 kts | 91° |
| 2026-05-04 02:00 | 33.51896 | -118.38893 | 7808 ft | 300 kts | 92° |
| 2026-05-04 02:00 | 33.51858 | -118.36400 | 7424 ft | 298 kts | 92° |
| 2026-05-04 02:00 | 33.51815 | -118.33930 | 7099 ft | 294 kts | 90° |
| 2026-05-04 02:01 | 33.52133 | -118.31541 | 6782 ft | 290 kts | 70° |
| 2026-05-04 02:01 | 33.52909 | -118.29327 | 6478 ft | 288 kts | 65° |
| 2026-05-04 02:01 | 33.53665 | -118.27143 | 6193 ft | 286 kts | 67° |
| 2026-05-04 02:01 | 33.54399 | -118.24946 | 5920 ft | 281 kts | 67° |
| 2026-05-04 02:02 | 33.55116 | -118.22785 | 5647 ft | 276 kts | 67° |
| 2026-05-04 02:02 | 33.55815 | -118.20667 | 5375 ft | 268 kts | 68° |
| 2026-05-04 02:02 | 33.56469 | -118.18650 | 5114 ft | 250 kts | 68° |
| 2026-05-04 02:02 | 33.57114 | -118.16791 | 4897 ft | 232 kts | 58° |
| 2026-05-04 02:03 | 33.58009 | -118.15246 | 4825 ft | 224 kts | 51° |
| 2026-05-04 02:03 | 33.58938 | -118.13757 | 4801 ft | 223 kts | 52° |
| 2026-05-04 02:03 | 33.59834 | -118.12227 | 4917 ft | 225 kts | 53° |
| 2026-05-04 02:03 | 33.60709 | -118.10686 | 5316 ft | 229 kts | 54° |
| 2026-05-04 02:04 | 33.61630 | -118.09047 | 4956 ft | 245 kts | 55° |
| 2026-05-04 02:04 | 33.62555 | -118.07389 | 4905 ft | 229 kts | 55° |
| 2026-05-04 02:04 | 33.63432 | -118.05815 | 4899 ft | 225 kts | 54° |
| 2026-05-04 02:04 | 33.64298 | -118.04264 | 4999 ft | 222 kts | 54° |
| 2026-05-04 02:05 | 33.65164 | -118.02707 | 5095 ft | 228 kts | 54° |
| 2026-05-04 02:05 | 33.66043 | -118.01122 | 5095 ft | 228 kts | 55° |
| 2026-05-04 02:05 | 33.66908 | -117.99560 | 5099 ft | 227 kts | 55° |
| 2026-05-04 02:05 | 33.67785 | -117.97980 | 5075 ft | 228 kts | 56° |
| 2026-05-04 02:06 | 33.68664 | -117.96400 | 5039 ft | 226 kts | 56° |
| 2026-05-04 02:06 | 33.69536 | -117.94832 | 5038 ft | 226 kts | 55° |
| 2026-05-04 02:06 | 33.70454 | -117.93313 | 5059 ft | 225 kts | 45° |
| 2026-05-04 02:06 | 33.71647 | -117.92097 | 5069 ft | 225 kts | 34° |
| 2026-05-04 02:07 | 33.72906 | -117.90972 | 5078 ft | 226 kts | 36° |
| 2026-05-04 02:07 | 33.74144 | -117.89806 | 5069 ft | 226 kts | 37° |
| 2026-05-04 02:07 | 33.75363 | -117.88651 | 5027 ft | 218 kts | 37° |
| 2026-05-04 02:07 | 33.76529 | -117.87548 | 4961 ft | 209 kts | 37° |
| 2026-05-04 02:08 | 33.77672 | -117.86472 | 4757 ft | 212 kts | 37° |
| 2026-05-04 02:08 | 33.78838 | -117.85378 | 4585 ft | 210 kts | 37° |
| 2026-05-04 02:08 | 33.79973 | -117.84314 | 4499 ft | 205 kts | 37° |
| 2026-05-04 02:08 | 33.81101 | -117.83260 | 4361 ft | 206 kts | 38° |
| 2026-05-04 02:09 | 33.82236 | -117.82204 | 4244 ft | 206 kts | 37° |
| 2026-05-04 02:09 | 33.83374 | -117.81146 | 4118 ft | 208 kts | 37° |
| 2026-05-04 02:09 | 33.84516 | -117.80072 | 3918 ft | 209 kts | 42° |
| 2026-05-04 02:09 | 33.85296 | -117.78625 | 3738 ft | 207 kts | 68° |
| 2026-05-04 02:10 | 33.86068 | -117.77172 | 3506 ft | 211 kts | 38° |
| 2026-05-04 02:10 | 33.87395 | -117.76550 | 3353 ft | 202 kts | 355° |
| 2026-05-04 02:10 | 33.88663 | -117.77039 | 3575 ft | 187 kts | 329° |
| 2026-05-04 02:10 | 33.89853 | -117.77748 | 4043 ft | 194 kts | 332° |
| 2026-05-04 02:11 | 33.91089 | -117.78469 | 4236 ft | 205 kts | 331° |
| 2026-05-04 02:11 | 33.92438 | -117.79169 | 3669 ft | 223 kts | 343° |
| 2026-05-04 02:11 | 33.94041 | -117.79055 | 3016 ft | 234 kts | 23° |
| 2026-05-04 02:11 | 33.95205 | -117.77860 | 3007 ft | 215 kts | 62° |
| 2026-05-04 02:12 | 33.95493 | -117.76160 | 3031 ft | 206 kts | 103° |
| 2026-05-04 02:12 | 33.94848 | -117.74688 | 3094 ft | 199 kts | 145° |
| 2026-05-04 02:12 | 33.93615 | -117.74126 | 3165 ft | 190 kts | 185° |
| 2026-05-04 02:12 | 33.92337 | -117.74109 | 3792 ft | 187 kts | 180° |
| 2026-05-04 02:13 | 33.90984 | -117.74015 | 3656 ft | 197 kts | 180° |
| 2026-05-04 02:13 | 33.89620 | -117.73977 | 3453 ft | 195 kts | 184° |
| 2026-05-04 02:13 | 33.88363 | -117.73942 | 4130 ft | 168 kts | 181° |
| 2026-05-04 02:13 | 33.87070 | -117.73953 | 3908 ft | 195 kts | 188° |
| 2026-05-04 02:14 | 33.85739 | -117.74194 | 3433 ft | 188 kts | 198° |
| 2026-05-04 02:14 | 33.84639 | -117.74966 | 2990 ft | 184 kts | 222° |
| 2026-05-04 02:14 | 33.83761 | -117.76053 | 2900 ft | 181 kts | 229° |
| 2026-05-04 02:14 | 33.82894 | -117.77188 | 2766 ft | 188 kts | 224° |
| 2026-05-04 02:15 | 33.81896 | -117.78193 | 2647 ft | 186 kts | 217° |
| 2026-05-04 02:15 | 33.80753 | -117.78940 | 2410 ft | 189 kts | 204° |
| 2026-05-04 02:15 | 33.79540 | -117.79516 | 2228 ft | 182 kts | 202° |
| 2026-05-04 02:15 | 33.78383 | -117.80067 | 2121 ft | 177 kts | 205° |
| 2026-05-04 02:16 | 33.77275 | -117.80642 | 2074 ft | 170 kts | 208° |
| 2026-05-04 02:16 | 33.76234 | -117.81304 | 2027 ft | 170 kts | 212° |
| 2026-05-04 02:16 | 33.75204 | -117.82030 | 1777 ft | 167 kts | 214° |
| 2026-05-04 02:16 | 33.74241 | -117.82705 | 1488 ft | 156 kts | 211° |
| 2026-05-04 02:17 | 33.73319 | -117.83297 | 1234 ft | 146 kts | 208° |
| 2026-05-04 02:17 | 33.72415 | -117.83833 | 998 ft | 144 kts | 207° |
| 2026-05-04 02:17 | 33.71523 | -117.84379 | 866 ft | 144 kts | 211° |
| 2026-05-04 02:17 | 33.70673 | -117.84972 | 750 ft | 140 kts | 212° |
| 2026-05-04 02:18 | 33.69849 | -117.85491 | 562 ft | 128 kts | 207° |
| 2026-05-04 02:18 | 33.69063 | -117.85950 | 324 ft | 123 kts | 207° |
| 2026-05-04 02:18 | 33.68316 | -117.86416 | 119 ft | 118 kts | 210° |
| 2026-05-04 02:18 | 33.67626 | -117.86855 | 56 ft | 99 kts | 208° |
| 2026-05-04 02:19 | 33.67152 | -117.87152 | 55 ft | 61 kts | 208° |
| 2026-05-04 02:19 | 33.66870 | -117.87337 | 65 ft | 34 kts | 204° |
| 2026-05-04 02:19 | 33.66755 | -117.87304 | 65 ft | 6 kts | 116° |
| 2026-05-04 02:19 | 33.66752 | -117.87289 | 64 ft | 2 kts | 86° |
| 2026-05-04 02:20 | 33.66761 | -117.87253 | 61 ft | 4 kts | 59° |
| 2026-05-04 02:20 | 33.66790 | -117.87220 | 58 ft | 9 kts | 42° |
| 2026-05-04 02:20 | 33.66851 | -117.87156 | 60 ft | 15 kts | 40° |
| 2026-05-04 02:20 | 33.66873 | -117.87136 | 61 ft | 0 kts | 39° |
| 2026-05-04 02:21 | 33.66875 | -117.87133 | 61 ft | 2 kts | 39° |
| 2026-05-04 02:21 | 33.66899 | -117.87109 | 61 ft | 7 kts | 40° |
| 2026-05-04 02:21 | 33.66972 | -117.87033 | 58 ft | 21 kts | 39° |
| 2026-05-04 02:21 | 33.67097 | -117.86904 | 57 ft | 26 kts | 39° |
| 2026-05-04 02:22 | 33.67254 | -117.86787 | 56 ft | 27 kts | 30° |
| 2026-05-04 02:22 | 33.67350 | -117.86690 | 57 ft | 28 kts | 32° |
| 2026-05-04 02:22 | 33.67526 | -117.86577 | 57 ft | 25 kts | 28° |
| 2026-05-04 02:22 | 33.67651 | -117.86498 | 55 ft | 16 kts | 27° |
| 2026-05-04 02:23 | 33.67772 | -117.86420 | 49 ft | 4 kts | 43° |
| 2026-05-04 02:23 | 33.67777 | -117.86406 | 51 ft | 3 kts | 80° |
| 2026-05-04 02:23 | 33.67767 | -117.86374 | 51 ft | 5 kts | 118° |
| 2026-05-04 02:23 | 33.67754 | -117.86344 | 50 ft | 2 kts | 118° |
| 2026-05-04 02:24 | 33.67753 | -117.86341 | 50 ft | 0 kts | 118° |